createdAt,value
2018-07-28T00:00:29.906Z,12.00
2018-07-28T00:02:59.686Z,12.73
2018-07-28T00:05:28.107Z,14.50
2018-07-28T00:07:59.276Z,13.40
2018-07-28T00:10:31.857Z,11.47
2018-07-28T00:13:01.517Z,12.73
2018-07-28T00:15:29.994Z,11.93
2018-07-28T00:18:06.368Z,12.80
2018-07-28T00:20:36.152Z,10.23
2018-07-28T00:23:04.600Z,11.07
2018-07-28T00:25:37.253Z,12.43
2018-07-28T00:28:07.661Z,15.87
2018-07-28T00:30:36.770Z,12.67
2018-07-28T00:33:05.349Z,14.17
2018-07-28T00:35:33.688Z,13.83
2018-07-28T00:38:10.357Z,14.70
2018-07-28T00:41:02.478Z,11.07
2018-07-28T00:43:47.671Z,11.57
2018-07-28T00:46:41.215Z,12.37
2018-07-28T00:49:18.982Z,10.90
2018-07-28T00:51:47.320Z,14.13
2018-07-28T00:54:32.065Z,10.83
2018-07-28T00:57:03.330Z,13.97
2018-07-28T01:02:23.963Z,10.03
2018-07-28T01:04:52.620Z,10.20
2018-07-28T01:07:26.967Z,9.57
2018-07-28T01:10:02.457Z,10.47
2018-07-28T01:12:41.007Z,10.47
2018-07-28T01:15:11.250Z,10.60
2018-07-28T01:17:40.375Z,10.87
2018-07-28T01:20:10.597Z,11.53
2018-07-28T01:22:41.203Z,12.43
2018-07-28T01:25:11.913Z,13.97
2018-07-28T01:27:40.804Z,12.80
2018-07-28T01:30:17.695Z,13.00
2018-07-28T01:32:47.394Z,10.43
2018-07-28T01:35:16.839Z,10.90
2018-07-28T01:37:50.367Z,12.57
2018-07-28T01:40:22.677Z,12.10
2018-07-28T01:42:54.744Z,11.73
2018-07-28T01:45:24.238Z,14.87
2018-07-28T01:47:52.908Z,14.23
2018-07-28T01:50:24.586Z,12.43
2018-07-28T01:52:58.918Z,13.60
2018-07-28T01:55:32.686Z,14.30
2018-07-28T01:58:08.408Z,12.87
2018-07-28T02:00:41.748Z,11.60
2018-07-28T02:03:10.364Z,12.27
2018-07-28T02:05:38.873Z,12.90
2018-07-28T02:08:07.371Z,14.63
2018-07-28T02:10:37.633Z,11.17
2018-07-28T02:13:06.823Z,12.23
2018-07-28T02:15:37.414Z,11.83
2018-07-28T02:18:11.057Z,12.57
2018-07-28T02:20:39.465Z,12.03
2018-07-28T02:23:08.263Z,11.27
2018-07-28T02:25:37.855Z,12.33
2018-07-28T02:28:06.524Z,10.23
2018-07-28T02:30:36.008Z,15.20
2018-07-28T02:33:04.905Z,12.90
2018-07-28T02:35:33.341Z,15.23
2018-07-28T02:38:04.077Z,12.93
2018-07-28T02:40:40.087Z,14.80
2018-07-28T02:43:08.422Z,13.83
2018-07-28T02:45:39.618Z,16.07
2018-07-28T02:48:08.161Z,13.50
2018-07-28T02:50:36.684Z,11.47
2018-07-28T02:53:07.458Z,15.83
2018-07-28T02:55:36.208Z,12.83
2018-07-28T02:58:05.960Z,16.17
2018-07-28T03:00:35.441Z,14.63
2018-07-28T03:03:04.020Z,16.20
2018-07-28T03:05:40.500Z,12.50
2018-07-28T03:08:09.224Z,16.73
2018-07-28T03:10:38.775Z,17.67
2018-07-28T03:13:08.224Z,15.07
2018-07-28T03:15:36.950Z,16.37
2018-07-28T03:18:08.456Z,17.67
2018-07-28T03:20:39.886Z,14.80
2018-07-28T03:23:08.691Z,14.77
2018-07-28T03:25:40.098Z,16.83
2018-07-28T03:28:11.800Z,15.50
2018-07-28T03:30:40.108Z,16.30
2018-07-28T03:33:08.809Z,15.03
2018-07-28T03:35:37.314Z,13.30
2018-07-28T03:38:06.210Z,16.77
2018-07-28T03:40:35.039Z,15.40
2018-07-28T03:43:03.515Z,16.80
2018-07-28T03:45:32.026Z,14.03
2018-07-28T03:48:01.932Z,13.77
2018-07-28T03:50:30.301Z,12.23
2018-07-28T03:52:59.115Z,14.07
2018-07-28T03:55:27.564Z,15.60
2018-07-28T03:57:56.076Z,12.43
2018-07-28T04:00:24.640Z,14.47
2018-07-28T04:02:52.959Z,14.20
2018-07-28T04:05:24.716Z,15.03
2018-07-28T04:07:53.070Z,16.13
2018-07-28T04:10:22.508Z,13.63
2018-07-28T04:12:51.049Z,15.63
2018-07-28T04:15:19.457Z,16.47
2018-07-28T04:17:53.221Z,17.67
2018-07-28T04:20:24.911Z,16.30
2018-07-28T04:22:53.973Z,17.17
2018-07-28T04:25:22.683Z,14.63
2018-07-28T04:27:51.565Z,15.93
2018-07-28T04:30:20.243Z,15.00
2018-07-28T04:32:50.573Z,15.07
2018-07-28T04:35:19.142Z,13.57
2018-07-28T04:37:50.005Z,16.97
2018-07-28T04:40:18.613Z,16.83
2018-07-28T04:42:47.253Z,15.57
2018-07-28T04:45:16.089Z,14.83
2018-07-28T04:47:44.847Z,13.80
2018-07-28T04:50:14.273Z,14.77
2018-07-28T04:52:43.043Z,13.60
2018-07-28T04:55:11.419Z,15.00
2018-07-28T04:57:42.903Z,14.60
2018-07-28T05:00:11.192Z,15.07
2018-07-28T05:02:40.491Z,12.73
2018-07-28T05:05:08.959Z,15.03
2018-07-28T05:07:37.378Z,16.10
2018-07-28T05:10:05.869Z,12.33
2018-07-28T05:12:36.885Z,13.00
2018-07-28T05:15:11.837Z,15.93
2018-07-28T05:17:45.338Z,13.80
2018-07-28T05:20:13.668Z,14.63
2018-07-28T05:22:47.548Z,12.77
2018-07-28T05:25:20.398Z,13.43
2018-07-28T05:27:50.532Z,12.63
2018-07-28T05:30:19.478Z,14.57
2018-07-28T05:32:48.064Z,12.40
2018-07-28T05:35:16.604Z,12.83
2018-07-28T05:37:48.420Z,13.40
2018-07-28T05:40:16.756Z,13.40
2018-07-28T05:42:47.631Z,15.07
2018-07-28T05:45:16.190Z,13.07
2018-07-28T05:47:47.743Z,12.77
2018-07-28T05:50:16.294Z,9.60
2018-07-28T05:52:45.638Z,14.27
2018-07-28T05:55:15.511Z,12.10
2018-07-28T05:57:44.264Z,13.00
2018-07-28T06:00:18.030Z,12.17
2018-07-28T06:05:31.043Z,13.33
2018-07-28T06:08:07.061Z,11.93
2018-07-28T06:10:39.345Z,10.83
2018-07-28T06:13:11.077Z,12.20
2018-07-28T06:15:45.339Z,12.70
2018-07-28T06:18:18.705Z,11.20
2018-07-28T06:20:51.513Z,8.40
2018-07-28T06:23:24.450Z,8.93
2018-07-28T06:25:52.972Z,10.65
2018-07-28T06:28:22.069Z,8.35
2018-07-28T06:31:04.249Z,9.60
2018-07-28T06:33:38.159Z,8.85
2018-07-28T06:36:06.850Z,7.75
2018-07-28T06:38:40.319Z,7.90
2018-07-28T06:42:12.187Z,7.25
2018-07-28T06:44:40.603Z,7.10
2018-07-28T06:49:52.299Z,6.90
2018-07-28T06:52:21.070Z,8.93
2018-07-28T06:54:58.433Z,7.90
2018-07-28T06:57:29.539Z,7.60
2018-07-28T07:00:07.631Z,8.78
2018-07-28T07:02:39.387Z,7.75
2018-07-28T07:13:56.888Z,9.03
2018-07-28T07:16:27.764Z,7.75
2018-07-28T07:18:59.036Z,7.40
2018-07-28T07:21:29.340Z,7.40
2018-07-28T07:23:58.153Z,7.47
2018-07-28T07:26:26.974Z,7.00
2018-07-28T07:28:56.578Z,7.65
2018-07-28T07:31:26.282Z,7.53
2018-07-28T07:33:55.653Z,8.30
2018-07-28T07:36:24.478Z,7.97
2018-07-28T07:38:52.984Z,6.62
2018-07-28T07:41:23.270Z,8.18
2018-07-28T07:43:51.529Z,6.95
2018-07-28T07:46:21.256Z,7.70
2018-07-28T07:48:49.772Z,7.08
2018-07-28T07:51:18.285Z,8.33
2018-07-28T07:53:46.712Z,7.08
2018-07-28T07:56:15.146Z,7.42
2018-07-28T07:58:44.245Z,6.37
2018-07-28T08:01:15.662Z,7.60
2018-07-28T08:03:50.949Z,6.90
2018-07-28T08:06:20.606Z,6.37
2018-07-28T08:08:50.735Z,6.67
2018-07-28T08:14:22.877Z,7.50
2018-07-28T08:17:15.800Z,7.40
2018-07-28T08:19:55.829Z,6.78
2018-07-28T08:22:39.168Z,6.28
2018-07-28T08:28:04.597Z,6.67
2018-07-28T08:33:40.570Z,6.70
2018-07-28T08:36:34.350Z,6.10
2018-07-28T08:39:26.681Z,5.72
2018-07-28T08:42:03.260Z,6.03
2018-07-28T08:47:26.519Z,5.03
2018-07-28T08:49:55.182Z,5.90
2018-07-28T08:52:24.730Z,5.20
2018-07-28T08:54:53.284Z,5.35
2018-07-28T08:57:23.920Z,5.50
2018-07-28T08:59:52.358Z,5.47
2018-07-28T09:02:21.352Z,6.30
2018-07-28T09:04:50.052Z,5.60
2018-07-28T09:07:18.368Z,5.95
2018-07-28T09:09:46.757Z,6.00
2018-07-28T09:12:15.735Z,5.40
2018-07-28T09:15:40.850Z,4.95
2018-07-28T09:18:09.184Z,4.92
2018-07-28T09:20:43.476Z,4.67
2018-07-28T09:23:19.526Z,5.25
2018-07-28T09:25:53.956Z,5.03
2018-07-28T09:28:22.359Z,5.33
2018-07-28T09:30:50.826Z,4.70
2018-07-28T09:33:18.942Z,5.30
2018-07-28T09:35:48.141Z,5.03
2018-07-28T09:38:17.264Z,6.03
2018-07-28T09:40:45.651Z,5.50
2018-07-28T09:43:14.406Z,5.00
2018-07-28T09:45:55.186Z,4.50
2018-07-28T09:48:23.996Z,4.40
2018-07-28T09:50:54.226Z,4.37
2018-07-28T09:53:23.005Z,5.00
2018-07-28T09:56:04.272Z,4.85
2018-07-28T09:58:32.815Z,4.95
2018-07-28T10:01:12.801Z,4.60
2018-07-28T10:03:49.894Z,5.00
2018-07-28T10:06:19.149Z,4.15
2018-07-28T10:08:48.699Z,4.12
2018-07-28T10:11:17.066Z,3.92
2018-07-28T10:16:36.757Z,4.62
2018-07-28T10:19:05.989Z,4.53
2018-07-28T10:21:34.721Z,4.00
2018-07-28T10:24:04.645Z,3.67
2018-07-28T10:26:33.417Z,4.22
2018-07-28T10:29:08.855Z,4.03
2018-07-28T10:31:37.327Z,4.60
2018-07-28T10:34:06.729Z,4.00
2018-07-28T10:36:35.194Z,4.10
2018-07-28T10:39:08.915Z,4.40
2018-07-28T10:41:37.285Z,3.65
2018-07-28T10:44:07.391Z,3.40
2018-07-28T10:46:35.832Z,3.52
2018-07-28T10:49:04.494Z,3.90
2018-07-28T10:51:33.678Z,4.12
2018-07-28T10:54:02.196Z,3.60
2018-07-28T10:56:32.929Z,4.08
2018-07-28T10:59:01.389Z,3.30
2018-07-28T11:01:33.442Z,4.00
2018-07-28T11:04:02.025Z,3.95
2018-07-28T11:06:31.051Z,3.08
2018-07-28T11:09:04.954Z,3.50
2018-07-28T11:11:43.597Z,3.70
2018-07-28T11:14:17.450Z,3.30
2018-07-28T11:16:48.902Z,3.50
2018-07-28T11:19:22.276Z,3.62
2018-07-28T11:21:50.696Z,3.30
2018-07-28T11:24:19.146Z,3.45
2018-07-28T11:26:48.560Z,3.47
2018-07-28T11:29:16.964Z,3.80
2018-07-28T11:32:02.658Z,4.00
2018-07-28T11:34:47.970Z,3.40
2018-07-28T11:37:34.251Z,3.30
2018-07-28T11:40:19.617Z,3.55
2018-07-28T11:43:04.866Z,3.30
2018-07-28T11:45:33.210Z,3.20
2018-07-28T11:48:01.509Z,4.37
2018-07-28T11:50:29.729Z,4.37
2018-07-28T11:52:57.892Z,3.77
2018-07-28T11:55:26.119Z,3.70
2018-07-28T11:57:54.275Z,3.30
2018-07-28T12:00:22.549Z,3.20
2018-07-28T12:02:50.719Z,3.90
2018-07-28T12:05:18.973Z,4.58
2018-07-28T12:07:47.107Z,4.85
2018-07-28T12:10:15.407Z,4.35
2018-07-28T12:12:43.752Z,4.42
2018-07-28T12:15:12.015Z,4.37
2018-07-28T12:17:40.473Z,4.42
2018-07-28T12:20:08.785Z,4.72
2018-07-28T12:22:37.127Z,4.15
2018-07-28T12:25:05.467Z,4.87
2018-07-28T12:27:33.935Z,4.42
2018-07-28T12:32:44.253Z,3.87
2018-07-28T12:35:13.350Z,4.37
2018-07-28T12:37:41.529Z,4.00
2018-07-28T12:40:09.819Z,4.03
2018-07-28T12:42:38.313Z,4.53
2018-07-28T12:45:07.169Z,3.95
2018-07-28T12:47:35.457Z,4.20
2018-07-28T12:50:03.975Z,3.80
2018-07-28T12:52:32.562Z,3.70
2018-07-28T12:55:00.989Z,4.00
2018-07-28T12:57:30.073Z,3.85
2018-07-28T12:59:58.693Z,4.37
2018-07-28T13:02:27.289Z,4.08
2018-07-28T13:04:55.876Z,3.83
2018-07-28T13:07:24.208Z,3.50
2018-07-28T13:09:54.512Z,4.00
2018-07-28T13:12:22.998Z,4.20
2018-07-28T13:14:51.346Z,4.50
2018-07-28T13:17:19.549Z,4.40
2018-07-28T13:19:47.774Z,4.37
2018-07-28T13:22:15.985Z,4.53
2018-07-28T13:24:44.269Z,4.65
2018-07-28T13:27:12.481Z,4.47
2018-07-28T13:29:40.803Z,4.53
2018-07-28T13:32:09.935Z,4.10
2018-07-28T13:34:38.294Z,4.28
2018-07-28T13:37:07.046Z,4.90
2018-07-28T13:50:15.728Z,4.47
2018-07-28T13:52:43.969Z,4.78
2018-07-28T13:55:12.233Z,4.50
2018-07-28T13:57:40.551Z,5.25
2018-07-28T14:00:09.062Z,4.85
2018-07-28T14:02:38.385Z,5.70
2018-07-28T14:05:12.303Z,5.60
2018-07-28T14:07:42.865Z,5.75
2018-07-28T14:10:12.964Z,5.20
2018-07-28T14:12:41.626Z,5.65
2018-07-28T14:15:24.686Z,5.50
2018-07-28T14:17:54.567Z,6.28
2018-07-28T14:20:23.116Z,6.62
2018-07-28T14:22:51.653Z,6.53
2018-07-28T14:25:20.436Z,6.03
2018-07-28T14:27:48.746Z,6.53
2018-07-28T14:30:18.809Z,6.40
2018-07-28T14:32:47.114Z,7.17
2018-07-28T14:35:15.678Z,6.12
2018-07-28T14:37:44.096Z,6.35
2018-07-28T14:40:12.480Z,5.70
2018-07-28T14:42:40.952Z,6.03
2018-07-28T14:45:10.407Z,5.47
2018-07-28T14:47:39.513Z,6.00
2018-07-28T14:50:10.073Z,5.50
2018-07-28T14:52:39.372Z,6.10
2018-07-28T14:55:08.754Z,6.00
2018-07-28T14:57:36.922Z,5.77
2018-07-28T15:00:06.569Z,5.60
2018-07-28T15:02:36.046Z,5.30
2018-07-28T15:05:05.043Z,4.50
2018-07-28T15:07:33.568Z,5.33
2018-07-28T15:10:02.145Z,4.83
2018-07-28T15:12:30.365Z,5.60
2018-07-28T15:14:58.330Z,4.63
2018-07-28T15:17:26.462Z,5.23
2018-07-28T15:19:55.255Z,5.63
2018-07-28T15:22:24.090Z,5.37
2018-07-28T15:24:52.538Z,6.33
2018-07-28T15:27:21.339Z,4.20
2018-07-28T15:29:49.924Z,6.70
2018-07-28T15:35:08.533Z,6.67
2018-07-28T15:37:38.264Z,5.90
2018-07-28T15:40:06.916Z,5.60
2018-07-28T15:42:35.614Z,5.90
2018-07-28T15:45:04.351Z,6.57
2018-07-28T15:47:32.448Z,6.87
2018-07-28T15:50:01.038Z,7.03
2018-07-28T15:52:29.364Z,6.13
2018-07-28T15:54:57.642Z,5.67
2018-07-28T15:57:26.061Z,5.77
2018-07-28T15:59:54.378Z,5.97
2018-07-28T16:02:22.775Z,5.10
2018-07-28T16:04:51.041Z,5.30
2018-07-28T16:07:19.530Z,7.30
2018-07-28T16:09:47.841Z,7.77
2018-07-28T16:12:16.179Z,6.77
2018-07-28T16:14:44.545Z,7.47
2018-07-28T16:17:12.940Z,6.87
2018-07-28T16:19:41.393Z,4.93
2018-07-28T16:22:09.663Z,4.83
2018-07-28T16:24:37.963Z,6.80
2018-07-28T16:27:07.193Z,6.30
2018-07-28T16:29:35.664Z,5.53
2018-07-28T16:32:03.865Z,5.77
2018-07-28T16:34:32.115Z,5.93
2018-07-28T16:37:00.384Z,7.00
2018-07-28T16:39:28.617Z,6.90
2018-07-28T16:41:56.857Z,7.37
2018-07-28T16:44:25.076Z,7.00
2018-07-28T16:46:53.221Z,6.33
2018-07-28T16:49:21.448Z,6.93
2018-07-28T16:51:49.615Z,7.23
2018-07-28T16:54:17.930Z,6.90
2018-07-28T16:56:46.391Z,6.73
2018-07-28T16:59:14.735Z,6.87
2018-07-28T17:01:43.415Z,7.07
2018-07-28T17:04:11.650Z,8.20
2018-07-28T17:06:39.956Z,6.70
2018-07-28T17:09:12.070Z,6.93
2018-07-28T17:11:41.860Z,7.17
2018-07-28T17:14:10.381Z,6.60
2018-07-28T17:16:38.796Z,6.00
2018-07-28T17:19:07.224Z,6.77
2018-07-28T17:21:35.752Z,6.60
2018-07-28T17:24:04.187Z,6.53
2018-07-28T17:26:32.704Z,6.43
2018-07-28T17:29:01.121Z,5.73
2018-07-28T17:31:29.768Z,6.77
2018-07-28T17:33:58.181Z,5.93
2018-07-28T17:36:26.812Z,10.80
2018-07-28T17:38:55.292Z,6.87
2018-07-28T17:41:24.177Z,7.63
2018-07-28T17:43:52.962Z,8.80
2018-07-28T17:46:21.422Z,9.13
2018-07-28T17:48:50.012Z,7.57
2018-07-28T17:51:18.298Z,7.00
2018-07-28T17:53:46.677Z,9.93
2018-07-28T17:56:15.009Z,12.03
2018-07-28T17:58:43.550Z,12.70
2018-07-28T18:01:12.025Z,12.23
2018-07-28T18:03:40.399Z,9.70
2018-07-28T18:06:08.808Z,9.80
2018-07-28T18:08:38.370Z,9.27
2018-07-28T18:11:07.152Z,10.63
2018-07-28T18:13:35.510Z,10.10
2018-07-28T18:16:03.807Z,9.23
2018-07-28T18:18:32.856Z,9.03
2018-07-28T18:21:01.772Z,9.37
2018-07-28T18:23:30.350Z,8.53
2018-07-28T18:25:58.920Z,7.23
2018-07-28T18:28:27.475Z,8.07
2018-07-28T18:30:55.834Z,9.07
2018-07-28T18:33:24.325Z,8.03
2018-07-28T18:35:53.466Z,6.70
2018-07-28T18:38:21.824Z,8.33
2018-07-28T18:40:50.254Z,8.47
2018-07-28T18:43:18.558Z,9.20
2018-07-28T18:45:46.866Z,8.63
2018-07-28T18:48:15.885Z,9.00
2018-07-28T18:50:44.209Z,8.90
2018-07-28T18:53:12.446Z,10.27
2018-07-28T18:55:40.758Z,9.83
2018-07-28T18:58:09.062Z,8.67
2018-07-28T19:00:37.225Z,8.40
2018-07-28T19:03:05.590Z,8.43
2018-07-28T19:05:34.132Z,7.73
2018-07-28T19:08:03.514Z,7.63
2018-07-28T19:10:32.103Z,8.17
2018-07-28T19:13:06.066Z,8.03
2018-07-28T19:15:34.619Z,7.93
2018-07-28T19:18:08.775Z,7.53
2018-07-28T19:20:37.132Z,7.70
2018-07-28T19:23:11.141Z,8.83
2018-07-28T19:25:39.522Z,8.60
2018-07-28T19:28:13.855Z,8.70
2018-07-28T19:30:42.463Z,9.60
2018-07-28T19:33:10.785Z,9.90
2018-07-28T19:35:44.767Z,9.70
2018-07-28T19:38:13.129Z,9.80
2018-07-28T19:40:41.251Z,9.17
2018-07-28T19:43:09.555Z,9.00
2018-07-28T19:48:37.511Z,8.47
2018-07-28T19:51:07.233Z,8.17
2018-07-28T19:53:35.527Z,8.93
2018-07-28T19:56:05.025Z,7.87
2018-07-28T19:58:33.635Z,8.17
2018-07-28T20:01:02.009Z,9.37
2018-07-28T20:03:30.382Z,8.87
2018-07-28T20:05:58.613Z,8.90
2018-07-28T20:08:27.156Z,9.37
2018-07-28T20:10:55.387Z,9.33
2018-07-28T20:13:23.670Z,9.50
2018-07-28T20:15:52.043Z,8.67
2018-07-28T20:18:20.564Z,10.30
2018-07-28T20:20:49.192Z,9.10
2018-07-28T20:23:17.681Z,9.27
2018-07-28T20:25:46.028Z,9.80
2018-07-28T20:28:14.316Z,7.97
2018-07-28T20:30:42.671Z,9.10
2018-07-28T20:33:11.023Z,7.90
2018-07-28T20:35:39.293Z,7.57
2018-07-28T20:38:07.609Z,9.93
2018-07-28T20:40:35.882Z,8.00
2018-07-28T20:43:04.214Z,8.37
2018-07-28T20:45:32.366Z,9.40
2018-07-28T20:48:01.346Z,9.37
2018-07-28T20:50:29.875Z,9.47
2018-07-28T20:52:58.392Z,8.10
2018-07-28T20:55:33.350Z,9.50
2018-07-28T20:58:02.626Z,9.03
2018-07-28T21:00:31.388Z,9.27
2018-07-28T21:02:59.814Z,8.23
2018-07-28T21:05:28.466Z,8.67
2018-07-28T21:07:57.078Z,7.70
2018-07-28T21:10:25.608Z,7.37
2018-07-28T21:12:54.304Z,7.10
2018-07-28T21:15:23.012Z,6.87
2018-07-28T21:17:58.142Z,6.07
2018-07-28T21:20:26.937Z,6.23
2018-07-28T21:22:55.720Z,6.70
2018-07-28T21:25:24.540Z,6.10
2018-07-28T21:27:53.492Z,6.60
2018-07-28T21:30:22.369Z,6.50
2018-07-28T21:32:50.981Z,6.13
2018-07-28T21:35:20.315Z,5.07
2018-07-28T21:37:48.977Z,5.90
2018-07-28T21:40:18.751Z,5.77
2018-07-28T21:42:47.109Z,5.30
2018-07-28T21:45:15.468Z,6.13
2018-07-28T21:47:44.110Z,5.97
2018-07-28T21:50:13.818Z,5.97
2018-07-28T21:52:42.901Z,6.13
2018-07-28T21:55:11.104Z,5.67
2018-07-28T21:57:39.410Z,5.47
2018-07-28T22:00:10.759Z,5.63
2018-07-28T22:02:40.069Z,5.77
2018-07-28T22:05:08.803Z,5.77
2018-07-28T22:07:37.418Z,6.00
2018-07-28T22:10:06.371Z,5.83
2018-07-28T22:12:34.929Z,6.17
2018-07-28T22:15:05.083Z,6.03
2018-07-28T22:17:33.739Z,7.33
2018-07-28T22:20:02.459Z,5.87
2018-07-28T22:22:33.211Z,5.00
2018-07-28T22:25:01.618Z,4.20
2018-07-28T22:27:30.423Z,4.53
2018-07-28T22:29:58.881Z,3.50
2018-07-28T22:32:27.611Z,3.30
2018-07-28T22:34:56.343Z,4.00
2018-07-28T22:37:24.829Z,3.13
2018-07-28T22:39:53.425Z,3.20
2018-07-28T22:42:37.703Z,3.13
2018-07-28T22:45:06.273Z,2.87
2018-07-28T22:47:34.857Z,2.77
2018-07-28T22:50:04.068Z,2.93
2018-07-28T22:52:32.624Z,2.90
2018-07-28T22:55:01.017Z,3.40
2018-07-28T22:57:29.390Z,4.70
2018-07-28T22:59:57.951Z,5.40
2018-07-28T23:02:27.578Z,7.20
2018-07-28T23:04:57.092Z,8.13
2018-07-28T23:07:26.298Z,8.70
2018-07-28T23:09:55.362Z,8.83
2018-07-28T23:12:24.134Z,9.83
2018-07-28T23:14:52.526Z,10.30
2018-07-28T23:17:21.228Z,11.10
2018-07-28T23:19:49.809Z,11.20
2018-07-28T23:22:18.408Z,11.17
2018-07-28T23:24:46.812Z,10.87
2018-07-28T23:27:15.101Z,10.53
2018-07-28T23:29:43.444Z,10.30
2018-07-28T23:32:13.030Z,8.97
2018-07-28T23:34:42.429Z,7.90
2018-07-28T23:37:12.834Z,7.50
2018-07-28T23:39:41.486Z,5.20
2018-07-28T23:42:10.234Z,4.47
2018-07-28T23:44:38.882Z,4.33
2018-07-28T23:47:07.478Z,3.70
2018-07-28T23:49:36.009Z,2.83
2018-07-28T23:52:04.818Z,3.70
2018-07-28T23:54:33.600Z,3.63
2018-07-28T23:57:02.991Z,3.60
2018-07-28T23:59:31.567Z,3.13
